createdAt,value
2022-08-20T00:00:32.158Z,23.83
2022-08-20T00:03:02.182Z,23.93
2022-08-20T00:05:32.553Z,23.95
2022-08-20T00:08:00.475Z,23.76
2022-08-20T00:10:28.624Z,23.89
2022-08-20T00:12:56.086Z,23.85
2022-08-20T00:15:28.436Z,23.79
2022-08-20T00:17:56.100Z,23.89
2022-08-20T00:20:25.912Z,23.85
2022-08-20T00:22:53.267Z,23.89
2022-08-20T00:25:20.711Z,24.19
2022-08-20T00:27:48.470Z,24.12
2022-08-20T00:30:16.040Z,23.86
2022-08-20T00:33:20.502Z,23.90
2022-08-20T00:35:50.203Z,24.15
2022-08-20T00:38:17.896Z,24.34
2022-08-20T00:40:48.657Z,23.85
2022-08-20T00:43:36.478Z,23.80
2022-08-20T00:46:12.952Z,24.04
2022-08-20T00:48:41.683Z,24.06
2022-08-20T00:51:27.262Z,24.20
2022-08-20T00:54:02.795Z,24.08
2022-08-20T00:56:31.159Z,24.24
2022-08-20T00:58:58.788Z,24.20
2022-08-20T01:01:26.206Z,24.02
2022-08-20T01:03:57.558Z,24.36
2022-08-20T01:06:25.254Z,23.93
2022-08-20T01:08:52.612Z,23.82
2022-08-20T01:11:30.362Z,23.07
2022-08-20T01:14:36.620Z,22.93
2022-08-20T01:17:07.833Z,22.37
2022-08-20T01:19:38.564Z,22.45
2022-08-20T01:22:25.936Z,22.63
2022-08-20T01:27:22.758Z,22.39
2022-08-20T01:29:51.945Z,22.33
2022-08-20T01:32:19.641Z,21.79
2022-08-20T01:34:47.026Z,22.08
2022-08-20T01:37:14.466Z,22.04
2022-08-20T01:39:42.168Z,21.96
2022-08-20T01:42:14.435Z,21.70
2022-08-20T01:44:43.058Z,21.84
2022-08-20T01:47:25.613Z,22.04
2022-08-20T01:50:06.602Z,21.69
2022-08-20T01:52:47.235Z,21.82
2022-08-20T01:55:14.914Z,22.10
2022-08-20T01:57:42.279Z,21.83
2022-08-20T02:00:20.155Z,21.90
2022-08-20T02:02:50.462Z,21.78
2022-08-20T02:05:18.547Z,22.22
2022-08-20T02:07:46.021Z,22.19
2022-08-20T02:10:14.478Z,22.01
2022-08-20T02:12:42.102Z,22.34
2022-08-20T02:15:10.532Z,22.63
2022-08-20T02:17:39.078Z,22.79
2022-08-20T02:20:12.427Z,22.81
2022-08-20T02:22:50.137Z,22.44
2022-08-20T02:25:20.405Z,22.45
2022-08-20T02:27:51.893Z,22.63
2022-08-20T02:30:27.969Z,22.82
2022-08-20T02:32:58.386Z,22.90
2022-08-20T02:35:26.029Z,23.12
2022-08-20T02:37:53.594Z,23.22
2022-08-20T02:40:27.454Z,23.25
2022-08-20T02:42:59.465Z,23.47
2022-08-20T02:45:26.947Z,23.12
2022-08-20T02:47:55.748Z,22.55
2022-08-20T02:50:23.948Z,22.77
2022-08-20T02:52:52.022Z,22.53
2022-08-20T02:55:26.929Z,23.16
2022-08-20T02:57:58.617Z,23.17
2022-08-20T03:00:27.251Z,23.33
2022-08-20T03:02:54.690Z,23.20
2022-08-20T03:05:22.372Z,23.18
2022-08-20T03:07:53.410Z,23.36
2022-08-20T03:10:29.408Z,23.09
2022-08-20T03:12:57.086Z,23.16
2022-08-20T03:15:24.588Z,23.32
2022-08-20T03:17:52.388Z,23.35
2022-08-20T03:20:23.761Z,23.38
2022-08-20T03:22:51.545Z,23.14
2022-08-20T03:25:18.996Z,22.89
2022-08-20T03:27:47.320Z,22.86
2022-08-20T03:30:22.199Z,22.70
2022-08-20T03:32:50.196Z,23.07
2022-08-20T03:35:18.109Z,23.13
2022-08-20T03:37:48.234Z,23.26
2022-08-20T03:40:22.442Z,22.92
2022-08-20T03:42:49.803Z,22.92
2022-08-20T03:45:20.492Z,22.95
2022-08-20T03:47:48.252Z,22.82
2022-08-20T03:50:23.550Z,22.86
2022-08-20T03:52:52.087Z,23.19
2022-08-20T03:55:19.505Z,22.44
2022-08-20T03:57:48.149Z,22.86
2022-08-20T04:00:16.535Z,22.26
2022-08-20T04:02:44.191Z,22.54
2022-08-20T04:05:11.561Z,22.60
2022-08-20T04:07:38.951Z,22.76
2022-08-20T04:10:09.917Z,22.74
2022-08-20T04:12:48.683Z,23.12
2022-08-20T04:15:20.835Z,22.88
2022-08-20T04:17:50.163Z,22.69
2022-08-20T04:20:22.640Z,23.13
2022-08-20T04:22:59.107Z,23.02
2022-08-20T04:25:35.784Z,22.81
2022-08-20T04:28:05.493Z,22.77
2022-08-20T04:30:33.387Z,22.72
2022-08-20T04:33:00.975Z,22.51
2022-08-20T04:35:29.313Z,22.67
2022-08-20T04:38:01.413Z,22.81
2022-08-20T04:40:47.561Z,22.65
2022-08-20T04:43:14.913Z,22.57
2022-08-20T04:45:42.754Z,22.77
2022-08-20T04:48:14.763Z,22.86
2022-08-20T04:50:44.824Z,22.38
2022-08-20T04:53:13.274Z,22.24
2022-08-20T04:55:42.842Z,23.03
2022-08-20T04:58:12.384Z,23.00
2022-08-20T05:00:39.821Z,22.70
2022-08-20T05:03:07.209Z,23.20
2022-08-20T05:05:38.207Z,23.39
2022-08-20T05:08:05.622Z,23.24
2022-08-20T05:10:44.318Z,23.77
2022-08-20T05:13:11.760Z,23.97
2022-08-20T05:15:39.168Z,23.86
2022-08-20T05:18:07.902Z,24.06
2022-08-20T05:20:40.516Z,24.47
2022-08-20T05:23:09.594Z,24.56
2022-08-20T05:25:38.194Z,24.59
2022-08-20T05:28:13.373Z,24.53
2022-08-20T05:30:41.601Z,24.54
2022-08-20T05:33:10.066Z,24.67
2022-08-20T05:35:40.767Z,24.24
2022-08-20T05:38:10.518Z,23.82
2022-08-20T05:40:38.535Z,24.58
2022-08-20T05:43:05.988Z,24.54
2022-08-20T05:45:34.085Z,24.61
2022-08-20T05:48:13.767Z,24.81
2022-08-20T05:50:42.371Z,24.83
2022-08-20T05:53:09.770Z,25.24
2022-08-20T05:55:37.497Z,25.32
2022-08-20T05:58:07.245Z,25.51
2022-08-20T06:00:34.845Z,25.44
2022-08-20T06:03:31.711Z,24.55
2022-08-20T06:06:01.490Z,24.66
2022-08-20T06:08:29.123Z,23.87
2022-08-20T06:10:56.528Z,24.51
2022-08-20T06:13:23.983Z,24.38
2022-08-20T06:15:51.667Z,24.48
2022-08-20T06:18:27.669Z,23.68
2022-08-20T06:20:56.438Z,24.23
2022-08-20T06:23:25.291Z,23.72
2022-08-20T06:25:52.893Z,24.23
2022-08-20T06:28:20.546Z,24.05
2022-08-20T06:30:47.926Z,24.15
2022-08-20T06:33:15.272Z,24.65
2022-08-20T06:35:44.648Z,24.91
2022-08-20T06:38:12.848Z,24.03
2022-08-20T06:40:40.343Z,24.05
2022-08-20T06:43:09.096Z,24.20
2022-08-20T06:45:36.518Z,24.46
2022-08-20T06:48:09.811Z,24.19
2022-08-20T06:50:47.172Z,23.74
2022-08-20T06:53:17.274Z,24.55
2022-08-20T06:55:48.834Z,24.61
2022-08-20T06:58:32.792Z,24.67
2022-08-20T07:01:09.642Z,24.83
2022-08-20T07:03:42.164Z,25.11
2022-08-20T07:06:22.010Z,24.64
2022-08-20T07:08:49.389Z,25.12
2022-08-20T07:11:16.754Z,24.88
2022-08-20T07:13:45.371Z,24.75
2022-08-20T07:16:12.821Z,24.88
2022-08-20T07:18:40.221Z,24.25
2022-08-20T07:21:07.910Z,24.00
2022-08-20T07:23:36.357Z,23.62
2022-08-20T07:26:03.992Z,23.27
2022-08-20T07:28:34.448Z,22.75
2022-08-20T07:31:20.600Z,23.24
2022-08-20T07:33:50.246Z,23.52
2022-08-20T07:36:17.941Z,23.34
2022-08-20T07:38:50.887Z,23.45
2022-08-20T07:41:18.794Z,23.49
2022-08-20T07:43:46.421Z,23.26
2022-08-20T07:46:14.997Z,23.18
2022-08-20T07:48:49.527Z,22.76
2022-08-20T07:51:18.368Z,22.91
2022-08-20T07:53:46.777Z,23.01
2022-08-20T07:56:16.200Z,23.12
2022-08-20T07:58:50.095Z,22.79
2022-08-20T08:01:26.087Z,22.38
2022-08-20T08:03:54.013Z,22.51
2022-08-20T08:06:28.321Z,22.65
2022-08-20T08:09:05.830Z,22.91
2022-08-20T08:11:34.578Z,22.76
2022-08-20T08:14:02.486Z,21.99
2022-08-20T08:16:32.612Z,21.94
2022-08-20T08:19:02.117Z,21.96
2022-08-20T08:21:30.682Z,22.01
2022-08-20T08:23:58.286Z,22.06
2022-08-20T08:26:26.377Z,22.07
2022-08-20T08:28:54.346Z,22.30
2022-08-20T08:31:21.688Z,22.18
2022-08-20T08:33:49.060Z,22.25
2022-08-20T08:36:16.801Z,22.42
2022-08-20T08:38:44.852Z,22.11
2022-08-20T08:41:31.827Z,22.04
2022-08-20T08:44:08.270Z,22.05
2022-08-20T08:46:42.916Z,21.57
2022-08-20T08:49:12.938Z,21.83
2022-08-20T08:51:58.464Z,21.50
2022-08-20T08:54:28.699Z,21.15
2022-08-20T08:56:56.200Z,21.36
2022-08-20T08:59:23.666Z,21.45
2022-08-20T09:01:56.907Z,21.99
2022-08-20T09:04:30.393Z,22.12
2022-08-20T09:06:58.782Z,21.75
2022-08-20T09:09:32.198Z,21.48
2022-08-20T09:12:20.916Z,21.23
2022-08-20T09:14:49.192Z,21.49
2022-08-20T09:17:17.770Z,21.32
2022-08-20T09:19:45.781Z,21.73
2022-08-20T09:22:16.332Z,21.72
2022-08-20T09:24:44.056Z,21.46
2022-08-20T09:27:11.526Z,21.86
2022-08-20T09:29:39.493Z,21.80
2022-08-20T09:32:18.886Z,21.64
2022-08-20T09:34:52.039Z,21.36
2022-08-20T09:37:20.346Z,21.41
2022-08-20T09:39:48.087Z,21.56
2022-08-20T09:42:18.914Z,21.50
2022-08-20T09:44:46.608Z,21.60
2022-08-20T09:47:14.087Z,21.65
2022-08-20T09:49:41.488Z,20.98
2022-08-20T09:52:11.286Z,21.03
2022-08-20T09:54:39.063Z,20.75
2022-08-20T09:57:14.220Z,20.62
2022-08-20T09:59:41.603Z,20.27
2022-08-20T10:02:09.119Z,20.82
2022-08-20T10:04:36.784Z,20.38
2022-08-20T10:07:07.646Z,20.56
2022-08-20T10:09:36.183Z,20.97
2022-08-20T10:12:04.413Z,20.58
2022-08-20T10:14:31.823Z,20.46
2022-08-20T10:17:00.110Z,20.65
2022-08-20T10:19:28.114Z,20.67
2022-08-20T10:21:55.459Z,21.10
2022-08-20T10:24:23.170Z,21.93
2022-08-20T10:26:50.824Z,22.46
2022-08-20T10:29:18.713Z,21.60
2022-08-20T10:31:46.096Z,21.27
2022-08-20T10:34:13.740Z,21.77
2022-08-20T10:36:42.097Z,22.50
2022-08-20T10:39:12.579Z,22.71
2022-08-20T10:41:40.216Z,23.56
2022-08-20T10:44:07.723Z,24.19
2022-08-20T10:46:35.086Z,24.89
2022-08-20T10:49:02.773Z,24.89
2022-08-20T10:51:32.417Z,24.28
2022-08-20T10:54:00.669Z,24.93
2022-08-20T10:56:28.401Z,24.56
2022-08-20T10:58:56.070Z,25.02
2022-08-20T11:01:31.624Z,25.38
2022-08-20T11:04:01.647Z,25.72
2022-08-20T11:06:29.049Z,25.26
2022-08-20T11:08:56.931Z,25.25
2022-08-20T11:11:24.896Z,25.27
2022-08-20T11:13:52.291Z,25.50
2022-08-20T11:16:19.656Z,25.63
2022-08-20T11:18:47.877Z,25.51
2022-08-20T11:21:15.246Z,25.24
2022-08-20T11:23:42.613Z,25.44
2022-08-20T11:26:20.856Z,25.96
2022-08-20T11:28:48.298Z,26.02
2022-08-20T11:31:15.948Z,25.60
2022-08-20T11:33:43.334Z,25.80
2022-08-20T11:36:10.700Z,25.83
2022-08-20T11:38:38.359Z,25.50
2022-08-20T11:41:05.933Z,25.54
2022-08-20T11:43:33.660Z,25.46
2022-08-20T11:46:02.700Z,25.25
2022-08-20T11:48:30.080Z,25.71
2022-08-20T11:50:57.522Z,25.73
2022-08-20T11:53:25.206Z,25.46
2022-08-20T11:55:52.756Z,25.59
2022-08-20T11:58:20.187Z,25.66
2022-08-20T12:00:47.937Z,25.53
2022-08-20T12:03:15.670Z,25.64
2022-08-20T12:05:44.880Z,25.49
2022-08-20T12:08:26.668Z,25.39
2022-08-20T12:10:59.893Z,25.69
2022-08-20T12:13:46.585Z,25.80
2022-08-20T12:16:19.346Z,25.51
2022-08-20T12:18:47.079Z,25.75
2022-08-20T12:21:14.450Z,25.95
2022-08-20T12:23:42.096Z,26.05
2022-08-20T12:26:09.500Z,26.33
2022-08-20T12:28:36.888Z,25.94
2022-08-20T12:31:05.023Z,26.06
2022-08-20T12:33:32.447Z,26.35
2022-08-20T12:35:59.844Z,26.59
2022-08-20T12:38:27.587Z,26.86
2022-08-20T12:40:54.958Z,26.42
2022-08-20T12:43:25.020Z,26.46
2022-08-20T12:45:53.050Z,26.79
2022-08-20T12:48:20.956Z,27.06
2022-08-20T12:50:50.101Z,26.55
2022-08-20T12:53:17.929Z,26.42
2022-08-20T12:55:45.915Z,26.25
2022-08-20T12:58:13.298Z,26.39
2022-08-20T13:00:44.331Z,26.76
2022-08-20T13:03:14.738Z,26.74
2022-08-20T13:05:42.476Z,26.50
2022-08-20T13:08:10.717Z,25.99
2022-08-20T13:10:45.672Z,26.49
2022-08-20T13:13:14.506Z,25.98
2022-08-20T13:15:41.878Z,26.66
2022-08-20T13:18:09.283Z,26.33
2022-08-20T13:20:37.322Z,26.05
2022-08-20T13:23:05.164Z,26.18
2022-08-20T13:25:32.821Z,26.26
2022-08-20T13:28:02.305Z,26.18
2022-08-20T13:30:29.771Z,26.30
2022-08-20T13:32:57.277Z,26.77
2022-08-20T13:35:25.043Z,26.44
2022-08-20T13:37:52.417Z,25.94
2022-08-20T13:40:19.923Z,26.14
2022-08-20T13:42:47.608Z,25.85
2022-08-20T13:45:14.956Z,25.72
2022-08-20T13:47:42.520Z,25.67
2022-08-20T13:50:16.584Z,25.86
2022-08-20T13:52:43.939Z,26.05
2022-08-20T13:55:14.107Z,26.07
2022-08-20T13:57:42.570Z,26.45
2022-08-20T14:00:16.292Z,26.67
2022-08-20T14:02:43.967Z,27.07
2022-08-20T14:05:12.081Z,26.77
2022-08-20T14:07:42.574Z,26.57
2022-08-20T14:10:16.590Z,26.78
2022-08-20T14:12:44.023Z,27.04
2022-08-20T14:15:12.064Z,26.73
2022-08-20T14:17:43.849Z,25.63
2022-08-20T14:20:13.384Z,25.68
2022-08-20T14:22:41.367Z,25.40
2022-08-20T14:25:09.536Z,25.62
2022-08-20T14:27:36.984Z,26.10
2022-08-20T14:30:06.274Z,25.98
2022-08-20T14:32:33.720Z,26.07
2022-08-20T14:35:02.192Z,26.09
2022-08-20T14:37:33.384Z,25.93
2022-08-20T14:40:01.661Z,25.88
2022-08-20T14:42:29.691Z,25.92
2022-08-20T14:44:58.641Z,25.60
2022-08-20T14:47:30.365Z,26.17
2022-08-20T14:50:03.508Z,26.08
2022-08-20T14:52:33.778Z,25.76
2022-08-20T14:55:01.414Z,25.46
2022-08-20T14:57:30.265Z,25.39
2022-08-20T14:59:57.607Z,25.88
2022-08-20T15:02:25.290Z,25.59
2022-08-20T15:04:54.128Z,25.60
2022-08-20T15:07:27.580Z,25.93
2022-08-20T15:09:55.314Z,25.59
2022-08-20T15:12:23.110Z,25.73
2022-08-20T15:14:50.810Z,25.54
2022-08-20T15:17:26.510Z,25.70
2022-08-20T15:19:53.961Z,26.34
2022-08-20T15:22:21.954Z,25.44
2022-08-20T15:24:49.470Z,25.65
2022-08-20T15:27:24.024Z,25.75
2022-08-20T15:29:51.800Z,24.86
2022-08-20T15:32:19.604Z,25.25
2022-08-20T15:34:47.385Z,25.72
2022-08-20T15:37:15.590Z,26.03
2022-08-20T15:39:43.108Z,25.82
2022-08-20T15:42:10.970Z,25.60
2022-08-20T15:44:38.401Z,25.33
2022-08-20T15:47:31.985Z,25.61
2022-08-20T15:50:13.985Z,25.63
2022-08-20T15:52:42.749Z,26.11
2022-08-20T15:55:11.622Z,25.91
2022-08-20T15:57:50.033Z,25.52
2022-08-20T16:00:26.061Z,25.66
2022-08-20T16:03:15.818Z,25.71
2022-08-20T16:06:03.726Z,25.65
2022-08-20T16:09:00.218Z,24.85
2022-08-20T16:11:53.097Z,25.94
2022-08-20T16:14:22.955Z,25.74
2022-08-20T16:17:01.493Z,25.91
2022-08-20T16:19:36.515Z,25.99
2022-08-20T16:22:04.052Z,26.25
2022-08-20T16:24:32.171Z,26.45
2022-08-20T16:27:08.605Z,25.89
2022-08-20T16:30:00.418Z,26.51
2022-08-20T16:32:31.078Z,26.55
2022-08-20T16:35:00.352Z,26.78
2022-08-20T16:37:55.880Z,26.65
2022-08-20T16:40:39.450Z,26.46
2022-08-20T16:43:07.398Z,26.75
2022-08-20T16:45:51.068Z,26.82
2022-08-20T16:48:19.180Z,26.77
2022-08-20T16:50:58.930Z,26.21
2022-08-20T16:53:26.341Z,26.15
2022-08-20T16:55:54.113Z,26.10
2022-08-20T16:58:21.684Z,26.51
2022-08-20T17:00:49.106Z,25.66
2022-08-20T17:03:33.620Z,26.12
2022-08-20T17:06:23.074Z,26.18
2022-08-20T17:08:52.164Z,25.92
2022-08-20T17:11:31.977Z,25.83
2022-08-20T17:14:07.248Z,25.98
2022-08-20T17:16:49.354Z,25.66
2022-08-20T17:19:28.739Z,25.67
2022-08-20T17:21:56.987Z,25.78
2022-08-20T17:24:27.159Z,25.73
2022-08-20T17:27:01.725Z,25.80
2022-08-20T17:29:31.407Z,25.72
2022-08-20T17:32:00.841Z,25.62
2022-08-20T17:34:32.192Z,25.76
2022-08-20T17:37:08.965Z,25.32
2022-08-20T17:39:44.500Z,25.41
2022-08-20T17:42:17.592Z,25.10
2022-08-20T17:45:08.721Z,25.22
2022-08-20T17:47:36.841Z,25.32
2022-08-20T17:50:13.365Z,25.24
2022-08-20T17:52:47.548Z,25.23
2022-08-20T17:55:14.966Z,25.09
2022-08-20T17:57:44.648Z,25.29
2022-08-20T18:00:15.559Z,25.11
2022-08-20T18:02:43.273Z,24.90
2022-08-20T18:05:19.113Z,25.00
2022-08-20T18:08:06.608Z,24.96
2022-08-20T18:10:50.873Z,24.89
2022-08-20T18:13:19.315Z,24.43
2022-08-20T18:15:53.840Z,24.04
2022-08-20T18:18:55.054Z,24.14
2022-08-20T18:21:50.242Z,24.52
2022-08-20T18:24:20.593Z,24.77
2022-08-20T18:26:58.056Z,24.62
2022-08-20T18:29:35.680Z,24.34
2022-08-20T18:32:26.739Z,23.99
2022-08-20T18:34:54.558Z,24.24
2022-08-20T18:37:25.436Z,24.51
2022-08-20T18:39:52.878Z,24.41
2022-08-20T18:42:31.992Z,24.23
2022-08-20T18:44:59.582Z,24.32
2022-08-20T18:47:33.464Z,24.34
2022-08-20T18:50:16.882Z,24.11
2022-08-20T18:52:52.470Z,23.80
2022-08-20T18:55:43.746Z,24.20
2022-08-20T18:58:13.494Z,23.76
2022-08-20T19:00:47.626Z,23.82
2022-08-20T19:03:32.156Z,23.53
2022-08-20T19:06:09.110Z,23.07
2022-08-20T19:08:42.830Z,23.03
2022-08-20T19:11:50.795Z,23.19
2022-08-20T19:14:40.242Z,22.79
2022-08-20T19:17:20.326Z,22.56
2022-08-20T19:19:58.594Z,22.58
2022-08-20T19:22:27.243Z,22.75
2022-08-20T19:24:56.704Z,22.67
2022-08-20T19:27:26.000Z,22.99
2022-08-20T19:29:56.773Z,23.50
2022-08-20T19:32:26.755Z,23.78
2022-08-20T19:34:58.826Z,23.51
2022-08-20T19:37:40.011Z,23.52
2022-08-20T19:40:28.442Z,23.62
2022-08-20T19:42:58.289Z,23.72
2022-08-20T19:45:30.950Z,23.66
2022-08-20T19:48:07.977Z,23.70
2022-08-20T19:50:57.269Z,23.09
2022-08-20T19:53:30.474Z,23.72
2022-08-20T19:56:06.699Z,23.57
2022-08-20T19:58:34.443Z,22.61
2022-08-20T20:01:02.793Z,22.28
2022-08-20T20:03:33.674Z,22.48
2022-08-20T20:06:17.100Z,22.45
2022-08-20T20:08:53.552Z,22.26
2022-08-20T20:11:23.685Z,22.01
2022-08-20T20:13:51.332Z,22.87
2022-08-20T20:16:20.208Z,22.74
2022-08-20T20:18:54.895Z,22.82
2022-08-20T20:21:51.818Z,22.52
2022-08-20T20:24:30.025Z,22.40
2022-08-20T20:26:58.712Z,22.12
2022-08-20T20:29:34.313Z,22.29
2022-08-20T20:32:02.723Z,22.43
2022-08-20T20:34:35.577Z,22.43
2022-08-20T20:37:37.929Z,22.56
2022-08-20T20:40:25.422Z,22.46
2022-08-20T20:43:12.030Z,21.88
2022-08-20T20:45:58.070Z,21.94
2022-08-20T20:48:26.641Z,21.81
2022-08-20T20:51:00.238Z,21.77
2022-08-20T20:53:47.447Z,21.79
2022-08-20T20:56:36.656Z,21.82
2022-08-20T20:59:06.786Z,21.80
2022-08-20T21:01:47.897Z,21.70
2022-08-20T21:04:21.921Z,21.61
2022-08-20T21:06:50.016Z,21.67
2022-08-20T21:09:18.722Z,21.37
2022-08-20T21:11:46.265Z,20.93
2022-08-20T21:14:13.924Z,20.89
2022-08-20T21:16:41.812Z,20.99
2022-08-20T21:19:09.944Z,21.08
2022-08-20T21:21:38.309Z,20.61
2022-08-20T21:24:06.241Z,20.79
2022-08-20T21:26:33.599Z,20.66
2022-08-20T21:29:01.142Z,20.77
2022-08-20T21:31:36.137Z,20.87
2022-08-20T21:34:03.525Z,20.83
2022-08-20T21:36:31.181Z,21.14
2022-08-20T21:38:58.565Z,21.11
2022-08-20T21:41:29.767Z,20.99
2022-08-20T21:43:59.319Z,21.13
2022-08-20T21:46:28.678Z,20.90
2022-08-20T21:48:56.236Z,21.12
2022-08-20T21:51:23.885Z,20.78
2022-08-20T21:53:52.010Z,21.05
2022-08-20T21:56:19.395Z,20.83
2022-08-20T21:58:47.495Z,21.13
2022-08-20T22:01:14.985Z,21.07
2022-08-20T22:03:42.745Z,20.88
2022-08-20T22:06:11.630Z,20.72
2022-08-20T22:08:39.122Z,20.79
2022-08-20T22:11:07.810Z,20.93
2022-08-20T22:13:35.306Z,20.55
2022-08-20T22:16:04.607Z,20.53
2022-08-20T22:18:32.407Z,20.51
2022-08-20T22:20:59.749Z,20.65
2022-08-20T22:23:27.342Z,20.98
2022-08-20T22:25:55.009Z,20.58
2022-08-20T22:28:22.420Z,20.51
2022-08-20T22:30:49.926Z,20.70
2022-08-20T22:33:20.485Z,20.27
2022-08-20T22:35:49.644Z,20.28
2022-08-20T22:38:17.042Z,20.19
2022-08-20T22:40:44.833Z,20.37
2022-08-20T22:43:12.206Z,20.26
2022-08-20T22:45:39.766Z,20.20
2022-08-20T22:48:07.570Z,20.27
2022-08-20T22:50:36.703Z,20.41
2022-08-20T22:53:04.231Z,20.19
2022-08-20T22:55:31.861Z,20.73
2022-08-20T22:57:59.314Z,20.14
2022-08-20T23:00:28.355Z,19.88
2022-08-20T23:02:57.030Z,20.17
2022-08-20T23:05:25.756Z,20.17
2022-08-20T23:07:54.483Z,20.41
2022-08-20T23:10:23.053Z,20.60
2022-08-20T23:12:50.533Z,20.45
2022-08-20T23:15:17.978Z,20.50
2022-08-20T23:17:45.705Z,20.54
2022-08-20T23:20:14.933Z,20.49
2022-08-20T23:22:42.475Z,20.23
2022-08-20T23:25:10.584Z,20.47
2022-08-20T23:28:03.493Z,20.58
2022-08-20T23:30:32.084Z,20.28
2022-08-20T23:33:01.596Z,20.24
2022-08-20T23:35:29.846Z,20.51
2022-08-20T23:38:00.674Z,20.80
2022-08-20T23:40:28.967Z,20.04
2022-08-20T23:42:56.667Z,20.57
2022-08-20T23:45:24.618Z,20.58
2022-08-20T23:47:51.990Z,20.11
2022-08-20T23:50:21.681Z,20.43
2022-08-20T23:52:52.708Z,20.58
2022-08-20T23:55:20.640Z,20.23
2022-08-20T23:57:47.999Z,20.09
